Buckie, United Kingdom
Current Conditions -  °F | °C
As of 3:50 PM on Friday 24 Oct 2014 (Local Time) from EGQS Reporting Station
Broken Clouds Broken Clouds  
Wind Chill: 52°   Ceiling: 25000
Heat Index: 52°   Visibility: 6mi
Dew Point: 41°   Wind: 16mph
Humidity: 67%   Direction: 210°SSW
Pressure: 29.59"   Gusts: NA
Location:  57.68°N, 2.96°W
Report Text: EGQS 241450Z 21014KT 9999 FEW038 SCT100 BKN250 11/05 Q1002 BLU TEMPO -SHRA SCT022 WHT
Loading
Personal Weather Stations






























Interactive Weather Map
Tropical Storm Tracking
New forecast layout! Learn more

10-Day Weather Forecast

Advertisements
Track Severe Weather on mobile